Time;durP1;ratioP1;P1;durP2;ratioP2;P2;SDS_P1;SDS_P2;PMS_P1;PMS_P2;Temp;Humidity;BMP_temperature;BMP_pressure;BME280_temperature;BME280_humidity;BME280_pressure;Samples;Min_cycle;Max_cycle;Signal;HPM_P1;HPM_P2
2021/05/20 00:01:38;;;;;;;8.45;4.88;;;11.30;99.90;;;;;;5054708;28;20025;-79
2021/05/20 00:04:04;;;;;;;5.57;3.50;;;11.30;99.90;;;;;;5054443;28;20029;-79
2021/05/20 00:06:30;;;;;;;7.47;3.78;;;11.20;99.90;;;;;;5055055;28;20409;-78
2021/05/20 00:08:56;;;;;;;10.18;3.65;;;11.20;99.90;;;;;;5054251;28;20033;-79
2021/05/20 00:11:22;;;;;;;5.22;3.78;;;11.10;99.90;;;;;;5054072;28;20127;-78
2021/05/20 00:13:47;;;;;;;7.32;4.22;;;11.10;99.90;;;;;;5054362;28;20537;-79
2021/05/20 00:16:13;;;;;;;7.57;3.92;;;11.10;99.90;;;;;;5054439;28;20075;-79
2021/05/20 00:18:39;;;;;;;5.85;3.83;;;11.10;99.90;;;;;;5054290;28;20350;-79
2021/05/20 00:21:05;;;;;;;5.18;3.58;;;11.20;99.90;;;;;;5054034;28;20028;-78
2021/05/20 00:23:30;;;;;;;8.45;4.40;;;11.20;99.90;;;;;;5054125;28;20036;-78
2021/05/20 00:25:56;;;;;;;8.18;3.88;;;11.20;99.90;;;;;;5053808;28;20381;-79
2021/05/20 00:28:22;;;;;;;8.70;4.50;;;11.20;99.90;;;;;;5052019;28;20075;-78
2021/05/20 00:30:47;;;;;;;4.53;3.90;;;11.20;99.90;;;;;;5053201;28;20074;-79
2021/05/20 00:33:13;;;;;;;4.97;3.92;;;11.20;99.90;;;;;;5053476;28;20017;-79
2021/05/20 00:35:39;;;;;;;5.68;4.13;;;11.20;99.90;;;;;;5053955;28;20060;-76
2021/05/20 00:38:11;;;;;;;5.18;3.78;;;11.20;99.90;;;;;;5053715;28;20032;-77
2021/05/20 00:40:38;;;;;;;6.55;3.72;;;11.20;99.90;;;;;;5053930;28;20021;-79
2021/05/20 00:43:04;;;;;;;8.20;3.55;;;11.20;99.90;;;;;;5053615;28;20513;-80
2021/05/20 00:45:30;;;;;;;8.38;3.47;;;11.20;99.90;;;;;;5053688;28;20017;-78
2021/05/20 00:47:56;;;;;;;11.70;3.97;;;11.30;99.90;;;;;;5053842;28;20488;-79
2021/05/20 00:50:22;;;;;;;5.70;3.65;;;11.30;99.90;;;;;;5053471;28;20056;-79
2021/05/20 00:52:47;;;;;;;4.60;3.45;;;11.30;99.90;;;;;;5053004;28;20083;-78
2021/05/20 00:55:16;;;;;;;7.93;3.45;;;11.30;99.90;;;;;;5053302;28;20027;-78
2021/05/20 00:57:44;;;;;;;9.60;2.80;;;11.30;99.90;;;;;;5053408;28;20024;-79
2021/05/20 01:00:12;;;;;;;9.27;3.40;;;11.30;99.90;;;;;;5053671;28;20013;-79
2021/05/20 01:02:39;;;;;;;7.35;3.63;;;11.30;99.90;;;;;;5053274;28;20096;-79
2021/05/20 01:05:08;;;;;;;11.45;4.00;;;11.30;99.90;;;;;;5051884;28;20116;-78
2021/05/20 01:07:34;;;;;;;7.60;4.05;;;11.30;99.90;;;;;;5052865;28;20024;-79
2021/05/20 01:10:00;;;;;;;6.95;3.83;;;11.30;99.90;;;;;;5053405;28;20037;-79
2021/05/20 01:12:26;;;;;;;10.35;5.00;;;11.20;99.90;;;;;;5053298;28;20461;-78
2021/05/20 01:14:52;;;;;;;7.90;4.97;;;11.30;99.90;;;;;;5053332;28;20027;-79
2021/05/20 01:17:17;;;;;;;8.43;4.85;;;11.30;99.90;;;;;;5052873;28;20358;-78
2021/05/20 01:19:47;;;;;;;7.68;5.03;;;11.30;99.90;;;;;;5052989;28;20049;-78
2021/05/20 01:22:16;;;;;;;6.22;4.57;;;11.30;99.90;;;;;;5053215;28;20029;-79
2021/05/20 01:24:42;;;;;;;6.57;4.88;;;11.30;99.90;;;;;;5052943;28;20024;-80
2021/05/20 01:27:09;;;;;;;9.52;5.63;;;11.30;99.90;;;;;;5052745;28;20432;-79
2021/05/20 01:29:36;;;;;;;9.30;5.88;;;11.40;99.90;;;;;;5052554;28;20040;-79
2021/05/20 01:32:03;;;;;;;8.65;5.47;;;11.40;99.90;;;;;;5052720;28;20021;-79
2021/05/20 01:34:33;;;;;;;10.25;5.80;;;11.50;99.90;;;;;;5052814;28;20358;-78
2021/05/20 01:37:04;;;;;;;9.57;5.68;;;11.50;99.90;;;;;;5052748;28;20100;-78
2021/05/20 01:39:29;;;;;;;8.15;5.35;;;11.50;99.90;;;;;;5052524;28;20028;-79
2021/05/20 01:41:55;;;;;;;10.13;5.45;;;11.60;99.90;;;;;;5052237;28;20151;-79
2021/05/20 01:44:22;;;;;;;6.22;4.47;;;11.50;99.90;;;;;;5052350;28;20055;-77
2021/05/20 01:46:48;;;;;;;7.18;4.90;;;11.50;99.90;;;;;;5052256;28;20025;-79
2021/05/20 01:49:14;;;;;;;7.72;5.07;;;11.50;99.90;;;;;;5052204;28;20504;-79
2021/05/20 01:51:40;;;;;;;8.77;5.00;;;11.50;99.90;;;;;;5052705;28;20107;-77
2021/05/20 01:54:06;;;;;;;9.40;4.18;;;11.50;99.90;;;;;;5040005;28;20775;-79
2021/05/20 01:56:39;;;;;;;6.88;4.53;;;11.50;99.90;;;;;;5040055;28;20017;-79
2021/05/20 01:59:06;;;;;;;7.63;4.13;;;11.40;99.90;;;;;;5037270;28;20024;-78
2021/05/20 02:01:33;;;;;;;4.72;3.28;;;11.40;99.90;;;;;;5052480;28;20480;-79
2021/05/20 02:03:59;;;;;;;12.23;3.40;;;11.40;99.90;;;;;;5052139;28;20454;-79
2021/05/20 02:06:24;;;;;;;10.73;4.18;;;11.40;99.90;;;;;;5052198;28;20029;-78
2021/05/20 02:08:50;;;;;;;16.15;3.80;;;11.30;99.90;;;;;;5052305;28;20481;-79
2021/05/20 02:11:16;;;;;;;15.50;4.25;;;11.30;99.90;;;;;;5025081;28;20033;-78
2021/05/20 02:13:42;;;;;;;6.10;4.07;;;11.30;99.90;;;;;;5029615;28;20018;-79
2021/05/20 02:16:08;;;;;;;6.30;3.30;;;11.20;99.90;;;;;;5042450;28;20028;-77
2021/05/20 02:18:34;;;;;;;8.82;3.42;;;11.20;99.90;;;;;;5051904;28;20101;-78
2021/05/20 02:21:01;;;;;;;9.95;3.47;;;11.20;99.90;;;;;;5051846;28;20017;-78
2021/05/20 02:23:26;;;;;;;5.65;3.00;;;11.20;99.90;;;;;;5051993;28;20029;-78
2021/05/20 02:25:53;;;;;;;5.90;3.13;;;11.20;99.90;;;;;;5052030;28;20035;-75
2021/05/20 02:28:19;;;;;;;10.73;3.65;;;11.20;99.90;;;;;;5051647;28;20025;-79
2021/05/20 02:30:44;;;;;;;12.80;4.00;;;11.20;99.90;;;;;;5051887;28;20036;-79
2021/05/20 02:33:10;;;;;;;5.93;3.28;;;11.10;99.90;;;;;;5031456;28;20021;-78
2021/05/20 02:35:36;;;;;;;5.03;3.95;;;11.10;99.90;;;;;;5033495;28;20025;-77
2021/05/20 02:38:02;;;;;;;7.80;3.88;;;11.00;99.90;;;;;;5024206;28;20028;-79
2021/05/20 02:40:28;;;;;;;11.80;3.92;;;11.00;99.90;;;;;;5031705;28;20025;-79
2021/05/20 02:42:54;;;;;;;4.90;3.67;;;11.00;99.90;;;;;;5031784;28;20037;-77
2021/05/20 02:45:23;;;;;;;5.75;3.78;;;11.00;99.90;;;;;;5031447;28;20513;-78
2021/05/20 02:47:50;;;;;;;5.20;4.03;;;11.00;99.90;;;;;;5031427;28;20021;-79
2021/05/20 02:50:17;;;;;;;6.65;4.10;;;11.00;99.90;;;;;;5031117;28;20127;-79
2021/05/20 02:52:44;;;;;;;8.77;4.47;;;11.00;99.90;;;;;;5029637;28;20595;-79
2021/05/20 02:55:21;;;;;;;7.50;4.28;;;11.00;99.90;;;;;;5020871;28;20630;-79
2021/05/20 02:57:50;;;;;;;5.72;4.22;;;10.90;99.90;;;;;;5027950;28;20030;-78
2021/05/20 03:00:21;;;;;;;6.07;3.65;;;10.90;99.90;;;;;;5031390;28;20018;-78
2021/05/20 03:02:50;;;;;;;7.57;3.80;;;11.00;99.90;;;;;;5032355;28;20022;-80
2021/05/20 03:05:17;;;;;;;14.70;4.35;;;11.00;99.90;;;;;;5031662;28;20021;-78
2021/05/20 03:07:43;;;;;;;5.57;3.05;;;10.90;99.90;;;;;;5031567;28;20029;-78
2021/05/20 03:10:09;;;;;;;5.80;3.20;;;10.90;99.90;;;;;;5031538;28;20044;-79
2021/05/20 03:12:35;;;;;;;14.70;3.90;;;10.90;99.90;;;;;;5035483;28;20026;-79
2021/05/20 03:15:01;;;;;;;5.60;3.35;;;10.80;99.90;;;;;;5031921;28;20033;-78
2021/05/20 03:17:27;;;;;;;10.98;3.10;;;10.80;99.90;;;;;;5029264;28;20021;-78
2021/05/20 03:19:53;;;;;;;4.53;3.35;;;10.80;99.90;;;;;;5025125;28;20032;-79
2021/05/20 03:22:19;;;;;;;6.18;3.28;;;10.80;99.90;;;;;;5021478;28;20141;-78
2021/05/20 03:24:44;;;;;;;4.65;3.58;;;10.80;99.90;;;;;;5033718;28;20100;-78
2021/05/20 03:27:10;;;;;;;6.47;3.58;;;10.80;99.90;;;;;;5033431;28;20033;-78
2021/05/20 03:29:36;;;;;;;4.88;3.60;;;10.80;99.90;;;;;;5033665;28;20038;-78
2021/05/20 03:32:02;;;;;;;7.28;3.70;;;10.70;99.90;;;;;;5034147;28;20024;-79
2021/05/20 03:34:27;;;;;;;4.68;3.17;;;10.70;99.90;;;;;;5034984;28;20414;-78
2021/05/20 03:36:53;;;;;;;7.18;4.28;;;10.70;99.90;;;;;;5018982;28;20022;-73
2021/05/20 03:39:19;;;;;;;8.75;3.90;;;10.70;99.90;;;;;;5025888;28;20056;-81
2021/05/20 03:41:45;;;;;;;5.55;4.80;;;10.70;99.90;;;;;;5028781;28;20381;-79
2021/05/20 03:44:10;;;;;;;6.43;4.40;;;10.70;99.90;;;;;;5033668;28;20068;-77
2021/05/20 03:46:36;;;;;;;12.35;4.47;;;10.70;99.90;;;;;;5033564;28;20056;-78
2021/05/20 03:49:03;;;;;;;14.30;5.25;;;10.70;99.90;;;;;;5033818;28;20508;-77
2021/05/20 03:51:29;;;;;;;11.15;5.38;;;10.70;99.90;;;;;;5034007;28;20049;-78
2021/05/20 03:53:55;;;;;;;9.43;4.90;;;10.70;99.90;;;;;;5033756;28;20064;-78
2021/05/20 03:56:21;;;;;;;8.88;5.18;;;10.70;99.90;;;;;;5034103;28;20541;-75
2021/05/20 03:58:46;;;;;;;14.02;5.13;;;10.70;99.90;;;;;;5034011;28;20090;-76
2021/05/20 04:01:12;;;;;;;10.55;5.32;;;10.80;99.90;;;;;;5034211;28;20014;-79
2021/05/20 04:03:38;;;;;;;9.27;5.35;;;10.80;99.90;;;;;;5034717;28;20481;-79
2021/05/20 04:06:05;;;;;;;17.42;5.85;;;10.90;99.90;;;;;;5034538;28;20135;-78
2021/05/20 04:08:34;;;;;;;9.73;5.53;;;10.90;99.90;;;;;;5034071;28;20144;-79
2021/05/20 04:10:59;;;;;;;8.00;5.45;;;11.00;99.90;;;;;;5034262;28;20033;-77
2021/05/20 04:13:30;;;;;;;7.47;5.25;;;11.00;99.90;;;;;;5034477;28;20025;-77
2021/05/20 04:15:56;;;;;;;9.50;4.82;;;11.00;99.90;;;;;;5034578;28;20119;-79
2021/05/20 04:18:22;;;;;;;10.73;4.35;;;11.10;99.90;;;;;;5034225;28;20030;-78
2021/05/20 04:20:48;;;;;;;7.38;4.93;;;11.10;99.90;;;;;;5034071;28;20032;-79
2021/05/20 04:23:14;;;;;;;9.50;4.78;;;11.10;99.90;;;;;;5033895;28;20440;-79
2021/05/20 04:25:40;;;;;;;11.88;4.72;;;11.10;99.90;;;;;;5034194;28;20021;-79
2021/05/20 04:28:06;;;;;;;10.68;5.03;;;11.10;99.90;;;;;;5033724;28;20025;-78
2021/05/20 04:30:32;;;;;;;10.18;5.50;;;11.10;99.90;;;;;;5033901;28;20363;-78
2021/05/20 04:32:57;;;;;;;11.95;5.43;;;11.20;99.90;;;;;;5033931;28;20032;-79
2021/05/20 04:35:23;;;;;;;6.75;4.95;;;11.40;99.90;;;;;;5033938;28;20029;-79
2021/05/20 04:37:49;;;;;;;11.90;5.18;;;12.00;99.90;;;;;;5033193;28;20025;-80
2021/05/20 04:40:15;;;;;;;12.02;5.40;;;13.10;99.90;;;;;;5032030;28;20045;-79
2021/05/20 04:42:41;;;;;;;7.82;4.70;;;14.60;99.90;;;;;;5025804;28;20017;-79
2021/05/20 04:45:07;;;;;;;8.52;4.40;;;16.60;99.90;;;;;;5037516;28;20405;-79
2021/05/20 04:47:32;;;;;;;9.77;4.93;;;18.70;99.90;;;;;;5033305;28;20032;-80
2021/05/20 04:49:58;;;;;;;9.75;4.43;;;20.20;99.90;;;;;;5032733;28;20046;-79
2021/05/20 04:52:24;;;;;;;6.57;4.25;;;21.70;99.90;;;;;;5033490;28;20470;-80
2021/05/20 04:54:50;;;;;;;10.15;4.22;;;22.70;99.90;;;;;;5036982;28;20436;-79
2021/05/20 04:57:16;;;;;;;7.30;4.10;;;23.70;99.90;;;;;;5043129;28;20026;-78
2021/05/20 04:59:41;;;;;;;11.07;4.03;;;24.50;99.90;;;;;;5041632;28;20040;-79
2021/05/20 05:02:07;;;;;;;5.25;3.92;;;24.70;99.90;;;;;;5045251;28;20511;-79
2021/05/20 05:04:33;;;;;;;8.40;4.18;;;25.70;99.90;;;;;;5039906;28;20104;-77
2021/05/20 05:06:59;;;;;;;10.77;4.85;;;26.50;99.90;;;;;;5045137;28;20025;-79
2021/05/20 05:09:24;;;;;;;10.85;5.38;;;26.50;99.90;;;;;;5040694;28;20048;-78
2021/05/20 05:11:50;;;;;;;9.60;4.70;;;26.70;99.90;;;;;;5044568;28;20066;-79
2021/05/20 05:14:16;;;;;;;10.02;4.35;;;27.40;99.90;;;;;;5044662;28;20475;-80
2021/05/20 05:16:42;;;;;;;9.85;4.45;;;27.60;99.90;;;;;;5042712;28;20026;-78
2021/05/20 05:19:08;;;;;;;4.88;3.30;;;28.30;99.90;;;;;;5046264;28;20021;-78
2021/05/20 05:21:33;;;;;;;6.88;3.33;;;28.70;99.90;;;;;;5040412;28;20075;-77
2021/05/20 05:23:59;;;;;;;19.90;4.28;;;29.20;99.90;;;;;;5035455;28;20567;-78
2021/05/20 05:26:25;;;;;;;11.32;3.70;;;29.30;99.90;;;;;;5032955;28;20025;-77
2021/05/20 05:28:51;;;;;;;10.23;4.53;;;29.20;99.60;;;;;;5026071;28;20812;-77
2021/05/20 05:31:21;;;;;;;12.00;5.00;;;29.00;99.30;;;;;;5043028;28;20025;-77
2021/05/20 05:33:47;;;;;;;7.55;4.30;;;29.50;98.90;;;;;;5041954;28;20071;-77
2021/05/20 05:36:13;;;;;;;11.90;5.07;;;30.00;98.30;;;;;;5045132;28;20021;-77
2021/05/20 05:38:38;;;;;;;7.50;4.50;;;30.50;97.00;;;;;;5040862;28;20105;-78
2021/05/20 05:41:04;;;;;;;12.35;4.00;;;30.30;96.80;;;;;;5045008;28;20458;-77
2021/05/20 05:43:30;;;;;;;8.95;4.50;;;31.40;96.00;;;;;;5041294;28;20029;-77
2021/05/20 05:45:56;;;;;;;12.35;4.43;;;31.70;95.30;;;;;;5036515;28;20028;-78
2021/05/20 05:48:22;;;;;;;12.18;4.35;;;31.90;95.50;;;;;;5032325;28;20485;-77
2021/05/20 05:50:49;;;;;;;9.77;5.10;;;32.80;94.10;;;;;;5019882;28;20045;-78
2021/05/20 05:53:15;;;;;;;9.23;5.03;;;32.60;93.50;;;;;;5038054;28;20013;-77
2021/05/20 05:55:41;;;;;;;9.43;4.82;;;33.50;92.50;;;;;;5036459;28;20021;-78
2021/05/20 05:58:07;;;;;;;11.20;4.82;;;34.30;91.40;;;;;;5038092;28;20385;-79
2021/05/20 06:00:32;;;;;;;7.40;4.53;;;34.20;90.60;;;;;;5036265;28;20373;-78
2021/05/20 06:02:59;;;;;;;7.38;3.53;;;34.90;89.80;;;;;;5043191;28;20449;-79
2021/05/20 06:05:24;;;;;;;6.22;3.30;;;34.80;88.10;;;;;;5047151;28;20029;-79
2021/05/20 06:07:50;;;;;;;5.10;3.60;;;34.90;86.90;;;;;;5046243;28;20462;-78
2021/05/20 06:10:16;;;;;;;8.23;3.75;;;34.50;85.90;;;;;;5047918;28;20479;-78
2021/05/20 06:12:42;;;;;;;7.75;2.65;;;34.90;85.60;;;;;;5050019;28;20021;-79
2021/05/20 06:15:09;;;;;;;13.65;3.03;;;35.60;84.50;;;;;;5047275;28;20090;-79
2021/05/20 06:17:38;;;;;;;4.32;2.63;;;36.00;82.30;;;;;;5050073;28;20023;-79
2021/05/20 06:20:08;;;;;;;4.18;2.47;;;36.10;81.60;;;;;;5047481;28;20031;-79
2021/05/20 06:22:34;;;;;;;5.70;3.20;;;36.00;80.00;;;;;;5049624;28;20025;-78
2021/05/20 06:24:59;;;;;;;3.75;2.05;;;36.20;79.80;;;;;;5047081;28;20025;-79
2021/05/20 06:27:28;;;;;;;5.05;2.53;;;36.70;78.80;;;;;;5049721;28;20043;-79
2021/05/20 06:29:55;;;;;;;5.28;2.80;;;36.80;77.60;;;;;;5049026;28;20037;-79
2021/05/20 06:32:20;;;;;;;4.78;2.45;;;37.30;76.40;;;;;;5048340;28;20454;-79
2021/05/20 06:34:46;;;;;;;4.63;2.45;;;37.40;76.20;;;;;;5049789;28;20108;-79
2021/05/20 06:37:12;;;;;;;7.35;3.20;;;37.60;75.70;;;;;;5047425;28;20071;-79
2021/05/20 06:39:39;;;;;;;7.63;3.10;;;37.60;74.30;;;;;;5049941;28;20051;-79
2021/05/20 06:42:08;;;;;;;9.55;2.60;;;38.20;73.70;;;;;;5047285;28;20017;-77
2021/05/20 06:44:34;;;;;;;7.97;3.90;;;38.10;73.00;;;;;;5042257;28;20040;-77
2021/05/20 06:47:00;;;;;;;9.52;3.63;;;38.20;72.60;;;;;;5024688;28;20028;-79
2021/05/20 06:49:25;;;;;;;11.57;4.25;;;38.30;72.30;;;;;;5027280;28;20405;-79
2021/05/20 06:51:51;;;;;;;14.30;3.90;;;38.30;71.10;;;;;;5046576;28;20025;-79
2021/05/20 06:54:17;;;;;;;9.85;4.10;;;38.20;70.10;;;;;;5024500;28;20495;-79
2021/05/20 06:56:47;;;;;;;9.15;3.80;;;37.60;70.50;;;;;;5031220;28;20030;-78
2021/05/20 07:01:57;;;;;;;13.35;5.00;;;35.90;72.70;;;;;;5020320;28;20041;-78
2021/05/20 07:04:22;;;;;;;25.15;5.38;;;34.30;75.10;;;;;;5026673;28;20026;-78
2021/05/20 07:06:48;;;;;;;22.40;5.90;;;32.80;78.20;;;;;;5024042;28;20374;-77
2021/05/20 07:09:14;;;;;;;13.15;5.18;;;31.50;80.40;;;;;;5026103;28;20057;-77
2021/05/20 07:11:41;;;;;;;11.27;5.82;;;30.30;82.00;;;;;;5023897;28;20466;-78
2021/05/20 07:14:06;;;;;;;11.82;5.78;;;28.80;84.80;;;;;;5019684;28;20069;-78
2021/05/20 07:16:33;;;;;;;13.90;6.25;;;27.30;88.80;;;;;;5029930;28;20762;-78
2021/05/20 07:18:59;;;;;;;15.30;6.20;;;26.20;90.50;;;;;;5021331;28;20057;-78
2021/05/20 07:21:25;;;;;;;11.68;5.90;;;25.40;91.80;;;;;;5013814;28;20018;-78
2021/05/20 07:23:51;;;;;;;11.90;6.95;;;24.70;92.90;;;;;;5017218;28;20125;-78
2021/05/20 07:26:17;;;;;;;17.45;8.10;;;24.00;93.40;;;;;;5025260;28;20524;-79
2021/05/20 07:28:42;;;;;;;13.60;6.57;;;23.70;94.10;;;;;;5026715;28;20049;-79
2021/05/20 07:31:09;;;;;;;14.82;6.78;;;23.40;94.90;;;;;;5023078;28;20030;-78
2021/05/20 07:33:35;;;;;;;17.60;7.30;;;23.40;95.60;;;;;;5023162;28;20108;-79
2021/05/20 07:36:01;;;;;;;11.98;6.20;;;23.10;96.10;;;;;;5021519;28;20010;-79
2021/05/20 07:38:27;;;;;;;13.60;6.93;;;23.00;97.00;;;;;;5027496;28;20036;-79
2021/05/20 07:40:54;;;;;;;12.88;7.20;;;22.90;97.10;;;;;;5027839;28;20034;-79
2021/05/20 07:43:20;;;;;;;10.85;6.80;;;22.80;97.70;;;;;;5020857;28;20024;-79
2021/05/20 07:45:48;;;;;;;12.30;6.50;;;22.70;98.00;;;;;;5030709;28;20032;-79
2021/05/20 07:48:14;;;;;;;21.80;7.43;;;22.60;98.30;;;;;;5015243;28;20018;-78
2021/05/20 07:50:40;;;;;;;13.27;7.25;;;22.50;99.00;;;;;;5011933;28;20056;-80
2021/05/20 07:53:06;;;;;;;20.63;6.93;;;22.40;99.30;;;;;;5036326;28;20025;-77
2021/05/20 07:55:31;;;;;;;11.80;6.10;;;22.30;99.50;;;;;;5023830;28;20053;-80
2021/05/20 07:57:59;;;;;;;9.38;5.70;;;22.20;99.90;;;;;;5021951;28;20696;-80
2021/05/20 08:00:25;;;;;;;12.18;5.97;;;22.20;99.90;;;;;;5026918;28;20021;-79
2021/05/20 08:03:43;;;;;;;10.90;5.53;;;22.20;99.90;;;;;;5024496;28;20503;-79
2021/05/20 08:05:44;;;;;;;12.98;6.00;;;22.20;99.90;;;;;;5041937;28;20119;-80
2021/05/20 08:13:03;;;;;;;16.38;5.65;;;22.00;99.90;;;;;;5046563;28;20520;-80
2021/05/20 08:15:29;;;;;;;10.27;5.88;;;22.10;99.90;;;;;;5049799;28;20059;-79
2021/05/20 08:17:55;;;;;;;11.13;5.63;;;22.10;99.90;;;;;;5048663;28;20017;-79
2021/05/20 08:20:21;;;;;;;13.02;5.88;;;21.80;99.90;;;;;;5048592;28;20416;-80
2021/05/20 08:22:47;;;;;;;10.73;6.53;;;21.80;99.90;;;;;;5037777;28;20374;-80
2021/05/20 08:25:13;;;;;;;8.40;5.13;;;21.90;99.90;;;;;;5024751;28;20079;-80
2021/05/20 08:27:38;;;;;;;13.35;5.63;;;22.00;99.90;;;;;;5032781;28;20100;-81
2021/05/20 08:30:07;;;;;;;22.23;6.65;;;22.10;99.90;;;;;;5033890;28;20030;-80
2021/05/20 08:32:32;;;;;;;14.93;6.28;;;22.20;99.90;;;;;;5034200;28;20033;-80
2021/05/20 08:34:58;;;;;;;11.73;6.07;;;22.10;99.90;;;;;;5027633;28;20414;-80
2021/05/20 08:37:24;;;;;;;8.55;5.43;;;21.90;99.90;;;;;;5033259;28;20102;-79
2021/05/20 08:39:50;;;;;;;8.93;5.32;;;22.00;99.90;;;;;;5034215;28;20110;-81
2021/05/20 08:42:15;;;;;;;15.55;4.85;;;22.00;99.90;;;;;;5034534;28;20501;-80
2021/05/20 08:44:41;;;;;;;11.23;4.47;;;21.90;99.90;;;;;;5030363;28;20036;-81
2021/05/20 08:47:09;;;;;;;10.45;5.03;;;22.10;99.90;;;;;;5036387;28;20022;-80
2021/05/20 08:49:35;;;;;;;5.68;4.13;;;22.00;99.90;;;;;;5038168;28;20051;-80
2021/05/20 08:52:01;;;;;;;8.73;4.05;;;21.90;99.90;;;;;;5035879;28;20010;-80
2021/05/20 08:54:27;;;;;;;7.95;3.75;;;21.70;99.90;;;;;;5036593;28;20035;-81
2021/05/20 08:56:53;;;;;;;6.53;4.18;;;21.70;99.90;;;;;;5038162;28;20021;-81
2021/05/20 08:59:19;;;;;;;10.77;4.30;;;21.70;99.90;;;;;;5036425;28;20100;-81
2021/05/20 09:01:46;;;;;;;7.55;4.45;;;21.50;99.90;;;;;;5038781;28;20050;-81
2021/05/20 09:04:12;;;;;;;7.50;4.03;;;21.60;99.90;;;;;;5036402;28;20018;-81
2021/05/20 09:06:49;;;;;;;5.47;3.97;;;21.80;99.90;;;;;;5038342;28;20039;-81
2021/05/20 09:09:21;;;;;;;10.88;3.08;;;21.90;99.90;;;;;;5035017;28;20029;-81
2021/05/20 09:11:56;;;;;;;6.93;3.38;;;22.10;99.90;;;;;;5035721;28;20031;-81
2021/05/20 09:14:29;;;;;;;12.73;3.25;;;22.10;99.90;;;;;;5030952;28;20068;-82
2021/05/20 09:17:17;;;;;;;5.00;3.47;;;21.90;99.90;;;;;;5035286;28;20024;-79
2021/05/20 09:19:54;;;;;;;5.72;3.28;;;21.70;99.90;;;;;;5023062;28;20065;-80
2021/05/20 09:22:21;;;;;;;4.22;2.85;;;21.70;99.90;;;;;;5031330;28;20417;-79
2021/05/20 09:24:52;;;;;;;10.15;2.30;;;21.80;99.90;;;;;;5025933;28;20053;-81
2021/05/20 09:27:38;;;;;;;6.47;2.00;;;22.00;99.90;;;;;;5025993;28;20017;-79
2021/05/20 09:30:18;;;;;;;4.20;2.00;;;21.80;99.90;;;;;;5027967;28;20549;-82
2021/05/20 09:32:56;;;;;;;4.00;2.10;;;21.80;99.90;;;;;;5025449;28;20038;-82
2021/05/20 09:35:24;;;;;;;4.22;1.98;;;21.70;99.90;;;;;;5025608;28;20029;-82
2021/05/20 09:38:03;;;;;;;2.25;2.00;;;21.70;99.90;;;;;;5031596;28;20025;-81
2021/05/20 09:40:32;;;;;;;6.40;1.90;;;22.00;99.90;;;;;;5032734;28;20014;-79
2021/05/20 09:42:58;;;;;;;2.45;1.70;;;22.00;99.90;;;;;;5028929;28;20390;-80
2021/05/20 09:45:26;;;;;;;5.95;1.88;;;22.00;99.90;;;;;;5026490;28;20014;-80
2021/05/20 09:48:03;;;;;;;3.00;1.50;;;21.90;99.90;;;;;;5017874;28;20105;-83
2021/05/20 09:50:29;;;;;;;5.32;1.60;;;21.80;99.90;;;;;;5020351;28;20045;-81
2021/05/20 09:53:02;;;;;;;6.97;2.05;;;21.70;99.90;;;;;;5024940;28;20079;-83
2021/05/20 09:55:28;;;;;;;3.67;2.00;;;21.70;99.90;;;;;;5029058;28;20100;-79
2021/05/20 09:57:56;;;;;;;2.45;2.25;;;21.70;99.90;;;;;;5027424;28;20045;-79
2021/05/20 10:00:26;;;;;;;3.72;1.73;;;21.60;99.90;;;;;;5019468;28;20028;-81
2021/05/20 10:03:01;;;;;;;7.45;2.05;;;21.50;99.90;;;;;;5029848;28;20075;-82
2021/05/20 10:05:32;;;;;;;2.97;2.17;;;21.50;99.90;;;;;;5031864;28;20025;-79
2021/05/20 10:08:06;;;;;;;4.93;2.25;;;21.30;99.90;;;;;;5032271;28;20108;-81
2021/05/20 10:10:38;;;;;;;7.90;2.63;;;21.20;99.90;;;;;;5031819;28;20397;-81
2021/05/20 10:13:09;;;;;;;8.20;3.47;;;21.20;99.90;;;;;;5031894;28;20021;-82
2021/05/20 10:15:36;;;;;;;4.82;2.65;;;21.00;99.90;;;;;;5024633;28;20385;-81
2021/05/20 10:18:13;;;;;;;3.28;2.75;;;20.90;99.90;;;;;;5027335;28;20454;-82
2021/05/20 10:20:40;;;;;;;5.85;2.58;;;20.70;99.90;;;;;;5029338;28;20028;-82
2021/05/20 10:23:12;;;;;;;4.25;2.17;;;20.70;99.90;;;;;;5031352;28;20021;-81
2021/05/20 10:25:39;;;;;;;4.32;1.70;;;20.80;99.90;;;;;;5030060;28;20458;-82
2021/05/20 10:28:09;;;;;;;3.42;1.70;;;20.70;99.90;;;;;;5029906;28;20021;-81
2021/05/20 10:30:37;;;;;;;8.68;1.60;;;20.70;99.90;;;;;;5030125;28;20033;-81
2021/05/20 10:33:04;;;;;;;7.28;1.67;;;20.60;99.90;;;;;;5031250;28;20040;-81
2021/05/20 10:35:47;;;;;;;7.78;1.70;;;20.60;99.90;;;;;;5031136;28;20037;-81
2021/05/20 10:38:36;;;;;;;11.75;2.45;;;20.80;99.90;;;;;;5019781;28;20393;-81
2021/05/20 10:41:18;;;;;;;6.55;1.98;;;21.00;99.90;;;;;;5024039;28;20028;-81
2021/05/20 10:43:45;;;;;;;4.50;1.90;;;21.10;99.90;;;;;;5021236;28;20029;-77
2021/05/20 10:46:16;;;;;;;12.40;1.85;;;21.30;99.90;;;;;;5032536;28;20061;-83
2021/05/20 10:49:02;;;;;;;24.95;2.90;;;21.50;99.90;;;;;;5030279;28;20040;-84
2021/05/20 10:51:32;;;;;;;11.55;2.30;;;21.80;99.90;;;;;;5030524;28;20075;-86
2021/05/20 10:54:07;;;;;;;10.40;2.38;;;21.80;99.90;;;;;;5025538;28;20075;-85
2021/05/20 10:56:33;;;;;;;9.35;1.52;;;21.70;99.90;;;;;;5032010;28;20060;-85
2021/05/20 10:59:00;;;;;;;2.40;1.23;;;21.40;99.90;;;;;;5030821;28;20036;-86
2021/05/20 11:01:37;;;;;;;12.85;1.50;;;21.30;99.90;;;;;;5033070;28;20053;-87
2021/05/20 11:04:06;;;;;;;2.63;1.33;;;21.40;99.90;;;;;;5032768;28;20556;-84
2021/05/20 11:06:38;;;;;;;2.35;1.40;;;21.60;99.90;;;;;;5035864;28;20026;-87
2021/05/20 11:09:04;;;;;;;;;;;21.60;99.90;;;;;;5036888;28;20628;-84
2021/05/20 11:11:30;;;;;;;7.20;1.83;;;21.60;99.90;;;;;;5029856;28;19913;-88
2021/05/20 11:13:57;;;;;;;5.88;1.88;;;21.50;99.90;;;;;;5028255;28;20081;-83
2021/05/20 11:16:33;;;;;;;5.90;1.80;;;21.40;99.90;;;;;;5020934;28;20030;-83
2021/05/20 11:19:27;;;;;;;5.60;1.48;;;21.30;99.90;;;;;;5030367;28;20462;-83
2021/05/20 11:21:59;;;;;;;5.78;1.65;;;21.40;99.90;;;;;;5030248;28;20022;-82
2021/05/20 11:24:33;;;;;;;5.55;1.50;;;21.20;99.90;;;;;;5025558;28;20431;-83
2021/05/20 11:27:00;;;;;;;3.95;1.45;;;21.10;99.90;;;;;;5022094;28;20108;-82
2021/05/20 11:29:37;;;;;;;5.50;2.45;;;21.10;99.90;;;;;;5024478;28;20386;-82
2021/05/20 11:32:25;;;;;;;3.28;1.30;;;21.20;99.90;;;;;;5029978;28;20017;-82
2021/05/20 11:37:37;;;;;;;5.93;1.70;;;21.30;99.90;;;;;;5034022;28;20367;-83
2021/05/20 11:40:06;;;;;;;7.28;2.10;;;21.30;99.90;;;;;;5032226;28;20026;-82
2021/05/20 11:42:33;;;;;;;2.60;1.60;;;21.30;99.90;;;;;;5028861;28;20067;-83
2021/05/20 11:45:05;;;;;;;7.10;1.67;;;21.40;99.90;;;;;;5027445;28;20041;-83
2021/05/20 11:47:31;;;;;;;3.42;2.40;;;21.30;99.90;;;;;;5022423;28;20034;-83
2021/05/20 11:49:56;;;;;;;4.65;1.80;;;21.30;99.90;;;;;;5030861;28;20049;-83
2021/05/20 11:52:25;;;;;;;5.07;1.40;;;21.30;99.90;;;;;;5028516;28;20026;-83
2021/05/20 11:54:52;;;;;;;6.95;1.75;;;21.40;99.90;;;;;;5029274;28;20029;-87
2021/05/20 11:57:21;;;;;;;2.50;1.35;;;21.40;99.90;;;;;;5034601;28;20049;-83
2021/05/20 11:59:50;;;;;;;4.13;1.67;;;21.20;99.90;;;;;;5037849;28;20064;-88
2021/05/20 12:02:24;;;;;;;5.78;1.70;;;21.20;99.90;;;;;;5029372;28;20021;-85
2021/05/20 12:05:12;;;;;;;2.28;1.55;;;21.30;99.90;;;;;;5035543;28;20389;-91
2021/05/20 12:07:44;;;;;;;3.00;1.58;;;21.40;99.90;;;;;;5028240;28;20033;-91
2021/05/20 12:10:23;;;;;;;4.60;1.98;;;21.40;99.90;;;;;;5035643;28;20495;-89
2021/05/20 12:12:59;;;;;;;3.58;1.52;;;21.40;99.90;;;;;;5039775;28;20374;-87
2021/05/20 12:15:26;;;;;;;3.33;1.65;;;21.40;99.90;;;;;;5031667;28;20076;-86
2021/05/20 12:17:55;;;;;;;4.65;1.98;;;21.40;99.90;;;;;;5030657;28;20025;-86
2021/05/20 12:20:21;;;;;;;4.80;1.80;;;21.40;99.90;;;;;;5030129;28;20029;-88
2021/05/20 12:22:48;;;;;;;5.20;1.83;;;21.50;99.90;;;;;;5030215;28;20363;-83
2021/05/20 12:25:22;;;;;;;3.47;1.25;;;21.50;99.90;;;;;;5028333;28;20048;-87
2021/05/20 12:27:53;;;;;;;2.03;1.27;;;21.40;99.90;;;;;;5051654;28;20063;-88
2021/05/20 12:30:26;;;;;;;3.92;1.50;;;21.30;99.90;;;;;;5032694;28;20132;-86
2021/05/20 12:32:52;;;;;;;2.90;1.52;;;21.50;99.90;;;;;;5050590;28;20108;-86
2021/05/20 12:35:23;;;;;;;3.50;1.30;;;21.60;99.90;;;;;;5042549;28;20032;-92
2021/05/20 12:38:07;;;;;;;3.53;1.38;;;21.70;99.90;;;;;;5032749;28;20060;-85
2021/05/20 12:40:55;;;;;;;3.33;1.40;;;21.90;99.90;;;;;;5041479;28;20072;-85
2021/05/20 12:43:21;;;;;;;2.05;1.40;;;22.00;99.90;;;;;;5048301;28;20072;-84
2021/05/20 12:45:53;;;;;;;11.00;1.63;;;22.00;99.90;;;;;;5034104;28;20025;-84
2021/05/20 12:48:19;;;;;;;;;;;22.00;99.90;;;;;;5033916;28;20517;-85
2021/05/20 12:50:45;;;;;;;2.40;1.50;;;22.20;99.90;;;;;;5026360;28;19971;-85
2021/05/20 12:53:10;;;;;;;2.30;1.40;;;22.40;99.90;;;;;;5040853;28;20477;-85
2021/05/20 12:55:41;;;;;;;2.80;1.08;;;22.30;99.90;;;;;;5047687;28;20033;-84
2021/05/20 12:58:08;;;;;;;3.60;1.35;;;22.20;99.90;;;;;;5046193;28;20021;-82